createdAt,value
2023-02-22T00:02:29.254Z,1.30
2023-02-22T00:07:28.723Z,0.90
2023-02-22T00:12:29.501Z,0.40
2023-02-22T00:17:28.020Z,0.90
2023-02-22T00:22:27.430Z,0.90
2023-02-22T00:27:27.454Z,0.90
2023-02-22T00:32:26.285Z,0.80
2023-02-22T00:37:25.742Z,1.10
2023-02-22T00:42:25.404Z,1.10
2023-02-22T00:47:26.621Z,0.30
2023-02-22T00:52:25.490Z,1.20
2023-02-22T00:57:26.235Z,1.20
2023-02-22T01:02:25.131Z,0.50
2023-02-22T01:07:24.165Z,0.70
2023-02-22T01:12:25.659Z,1.10
2023-02-22T01:17:25.398Z,0.30
2023-02-22T01:22:28.308Z,1.20
2023-02-22T01:27:28.458Z,0.80
2023-02-22T01:32:27.436Z,1.60
2023-02-22T01:37:28.726Z,0.90
2023-02-22T01:42:29.687Z,0.60
2023-02-22T01:47:30.637Z,0.40
2023-02-22T01:52:31.471Z,0.40
2023-02-22T01:57:38.350Z,0.20
2023-02-22T02:02:38.058Z,0.30
2023-02-22T02:07:39.340Z,0.40
2023-02-22T02:12:40.847Z,0.70
2023-02-22T02:17:40.304Z,0.30
2023-02-22T02:23:01.025Z,1.30
2023-02-22T02:28:36.047Z,1.40
2023-02-22T02:33:42.427Z,1.00
2023-02-22T02:38:47.476Z,0.60
2023-02-22T02:44:00.511Z,0.40
2023-02-22T02:49:05.317Z,0.90
2023-02-22T02:54:06.076Z,0.90
2023-02-22T02:59:19.981Z,0.60
2023-02-22T03:04:54.518Z,0.30
2023-02-22T03:10:13.296Z,0.70
2023-02-22T03:15:29.901Z,0.10
2023-02-22T03:20:38.720Z,0.40
2023-02-22T03:25:51.384Z,0.10
2023-02-22T03:30:58.730Z,0.60
2023-02-22T03:36:05.802Z,1.00
2023-02-22T03:41:09.915Z,0.80
2023-02-22T03:46:12.737Z,0.70
2023-02-22T03:51:16.802Z,0.30
2023-02-22T03:56:23.727Z,0.10
2023-02-22T04:01:26.440Z,0.10
2023-02-22T04:06:26.252Z,0.10
2023-02-22T04:11:27.354Z,0.10
2023-02-22T04:16:28.004Z,0.20
2023-02-22T04:21:27.623Z,0.10
2023-02-22T04:26:27.202Z,0.20
2023-02-22T04:31:28.993Z,0.20
2023-02-22T04:36:34.183Z,0.10
2023-02-22T04:41:34.652Z,0.20
2023-02-22T04:46:34.000Z,0.20
2023-02-22T04:51:36.188Z,0.20
2023-02-22T04:56:41.615Z,0.10
2023-02-22T05:01:41.551Z,0.10
2023-02-22T05:06:40.620Z,0.30
2023-02-22T05:11:39.768Z,0.20
2023-02-22T05:16:38.937Z,0.10
2023-02-22T05:21:37.839Z,0.20
2023-02-22T05:26:37.043Z,0.20
2023-02-22T05:31:37.031Z,0.30
2023-02-22T05:36:39.163Z,0.20
2023-02-22T05:41:38.049Z,0.10
2023-02-22T05:46:37.245Z,0.10
2023-02-22T05:51:36.961Z,0.10
2023-02-22T05:56:36.611Z,0.10
2023-02-22T06:01:36.320Z,0.10
2023-02-22T06:06:35.064Z,0.10
2023-02-22T06:11:34.159Z,0.10
2023-02-22T06:16:33.724Z,0.20
2023-02-22T06:21:33.443Z,0.20
2023-02-22T06:26:33.168Z,0.10
2023-02-22T06:31:32.461Z,0.10
2023-02-22T06:36:31.772Z,0.30
2023-02-22T06:41:33.853Z,0.30
2023-02-22T06:46:32.636Z,0.20
2023-02-22T06:51:32.562Z,0.20
2023-02-22T06:56:31.840Z,0.10
2023-02-22T07:01:30.900Z,0.20
2023-02-22T07:06:29.714Z,0.20
2023-02-22T07:11:28.759Z,0.20
2023-02-22T07:16:27.878Z,0.10
2023-02-22T07:21:27.415Z,0.20
2023-02-22T07:26:27.579Z,0.20
2023-02-22T07:31:29.560Z,0.10
2023-02-22T07:36:29.011Z,0.20
2023-02-22T07:41:28.818Z,0.30
2023-02-22T07:46:29.949Z,0.10
2023-02-22T07:51:31.254Z,0.10
2023-02-22T07:56:30.517Z,0.20
2023-02-22T08:01:29.595Z,0.20
2023-02-22T08:06:30.147Z,0.30
2023-02-22T08:11:29.597Z,0.20
2023-02-22T08:16:28.961Z,0.20
2023-02-22T08:21:28.458Z,0.30
2023-02-22T08:26:27.437Z,0.30
2023-02-22T08:31:26.598Z,0.20
2023-02-22T08:36:27.337Z,0.30
2023-02-22T08:41:26.885Z,0.30
2023-02-22T08:46:26.476Z,0.40
2023-02-22T08:51:27.829Z,0.20
2023-02-22T08:56:27.634Z,0.20
2023-02-22T09:01:33.499Z,0.30
2023-02-22T09:06:33.697Z,0.30
2023-02-22T09:11:33.198Z,0.10
2023-02-22T09:16:33.737Z,0.10
2023-02-22T09:21:33.071Z,0.40
2023-02-22T09:26:32.194Z,0.30
2023-02-22T09:31:31.054Z,0.10
2023-02-22T09:36:30.087Z,0.50
2023-02-22T09:41:36.790Z,0.30
2023-02-22T09:46:42.259Z,0.30
2023-02-22T09:51:50.088Z,1.00
2023-02-22T09:56:52.670Z,1.30
2023-02-22T10:02:02.113Z,1.50
2023-02-22T10:07:26.306Z,1.70
2023-02-22T10:12:43.706Z,1.80
2023-02-22T10:17:53.128Z,1.60
2023-02-22T10:23:05.361Z,1.20
2023-02-22T10:28:12.618Z,1.10
2023-02-22T10:33:18.968Z,1.30
2023-02-22T10:38:25.319Z,1.00
2023-02-22T10:43:26.347Z,1.10
2023-02-22T10:48:33.400Z,1.30
2023-02-22T10:53:36.393Z,0.80
2023-02-22T10:58:47.998Z,1.00
2023-02-22T11:03:57.490Z,1.10
2023-02-22T11:09:15.728Z,0.70
2023-02-22T11:14:26.674Z,0.90
2023-02-22T11:19:29.643Z,0.90
2023-02-22T11:24:43.549Z,0.50
2023-02-22T11:29:51.018Z,0.70
2023-02-22T11:35:03.688Z,0.90
2023-02-22T11:40:19.891Z,0.80
2023-02-22T11:45:25.074Z,0.80
2023-02-22T11:50:33.422Z,1.20
2023-02-22T11:55:43.219Z,1.10
2023-02-22T12:00:56.736Z,0.90
2023-02-22T12:06:19.819Z,1.40
2023-02-22T12:11:28.873Z,0.40
2023-02-22T12:16:45.195Z,0.60
2023-02-22T12:21:54.447Z,0.70
2023-02-22T12:27:01.411Z,0.80
2023-02-22T12:32:10.778Z,0.70
2023-02-22T12:37:22.539Z,0.70
2023-02-22T12:42:29.620Z,0.60
2023-02-22T12:47:38.914Z,0.80
2023-02-22T12:52:52.152Z,0.70
2023-02-22T12:58:05.679Z,1.00
2023-02-22T13:03:21.185Z,0.80
2023-02-22T13:08:34.237Z,0.80
2023-02-22T13:13:53.947Z,0.60
2023-02-22T13:19:02.313Z,0.80
2023-02-22T13:24:12.825Z,0.90
2023-02-22T13:29:18.891Z,0.60
2023-02-22T13:34:44.284Z,0.70
2023-02-22T13:40:06.862Z,0.70
2023-02-22T13:46:19.524Z,0.80
2023-02-22T13:51:42.336Z,0.40
2023-02-22T13:56:48.264Z,0.80
2023-02-22T14:01:53.610Z,0.30
2023-02-22T14:06:54.605Z,0.30
2023-02-22T14:11:57.629Z,0.60
2023-02-22T14:17:28.143Z,0.60
2023-02-22T14:22:32.514Z,0.70
2023-02-22T14:27:47.120Z,0.50
2023-02-22T14:32:48.992Z,0.60
2023-02-22T14:37:54.673Z,0.50
2023-02-22T14:43:04.613Z,0.50
2023-02-22T14:48:15.336Z,1.00
2023-02-22T14:53:32.437Z,0.80
2023-02-22T14:58:39.297Z,0.60
2023-02-22T15:03:39.701Z,0.80
2023-02-22T15:08:41.751Z,0.70
2023-02-22T15:13:51.181Z,1.30
2023-02-22T15:18:56.100Z,1.10
2023-02-22T15:23:59.529Z,0.80
2023-02-22T15:29:04.605Z,1.50
2023-02-22T15:34:24.958Z,1.70
2023-02-22T15:39:31.270Z,1.20
2023-02-22T15:44:38.740Z,1.60
2023-02-22T15:49:38.180Z,1.30
2023-02-22T15:54:50.409Z,1.60
2023-02-22T15:59:54.194Z,1.50
2023-02-22T16:05:02.168Z,1.90
2023-02-22T16:10:08.321Z,1.90
2023-02-22T16:15:18.501Z,1.90
2023-02-22T16:20:39.839Z,1.60
2023-02-22T16:25:39.773Z,2.20
2023-02-22T16:30:41.281Z,1.90
2023-02-22T16:35:41.070Z,2.20
2023-02-22T16:40:49.290Z,2.50
2023-02-22T16:45:50.937Z,3.10
2023-02-22T16:50:51.803Z,2.60
2023-02-22T16:55:57.754Z,3.10
2023-02-22T17:00:58.577Z,2.20
2023-02-22T17:05:58.475Z,1.70
2023-02-22T17:11:01.140Z,2.40
2023-02-22T17:16:01.038Z,2.00
2023-02-22T17:21:00.496Z,2.50
2023-02-22T17:26:03.652Z,3.30
2023-02-22T17:31:04.387Z,3.30
2023-02-22T17:36:06.934Z,5.30
2023-02-22T17:41:08.060Z,4.80
2023-02-22T17:46:11.424Z,4.80
2023-02-22T17:51:14.085Z,5.20
2023-02-22T17:56:18.910Z,4.40
2023-02-22T18:01:27.764Z,5.40
2023-02-22T18:06:30.229Z,6.70
2023-02-22T18:11:32.917Z,5.10
2023-02-22T18:16:32.421Z,6.80
2023-02-22T18:21:32.089Z,6.30
2023-02-22T18:26:31.679Z,6.10
2023-02-22T18:31:31.406Z,6.40
2023-02-22T18:36:32.562Z,6.30
2023-02-22T18:41:32.302Z,6.40
2023-02-22T18:46:31.751Z,6.60
2023-02-22T18:51:31.468Z,6.10
2023-02-22T18:56:31.784Z,5.40
2023-02-22T19:01:35.896Z,5.60
2023-02-22T19:06:36.342Z,5.80
2023-02-22T19:11:35.957Z,4.80
2023-02-22T19:16:36.109Z,4.40
2023-02-22T19:21:36.625Z,5.90
2023-02-22T19:26:36.457Z,6.60
2023-02-22T19:31:36.543Z,6.70
2023-02-22T19:36:39.096Z,5.90
2023-02-22T19:41:38.536Z,6.90
2023-02-22T19:46:38.869Z,7.20
2023-02-22T19:51:37.886Z,6.70
2023-02-22T19:56:38.687Z,5.20
2023-02-22T20:01:38.333Z,4.00
2023-02-22T20:06:40.501Z,5.90
2023-02-22T20:11:41.244Z,4.20
2023-02-22T20:16:40.951Z,2.80
2023-02-22T20:21:40.236Z,1.70
2023-02-22T20:26:41.773Z,2.10
2023-02-22T20:31:43.557Z,3.30
2023-02-22T20:36:44.327Z,5.60
2023-02-22T20:41:46.283Z,5.90
2023-02-22T20:46:46.582Z,3.40
2023-02-22T20:51:46.609Z,3.80
2023-02-22T20:56:51.761Z,3.30
2023-02-22T21:01:53.278Z,3.60
2023-02-22T21:06:53.468Z,2.10
2023-02-22T21:11:52.798Z,2.90
2023-02-22T21:16:54.540Z,3.50
2023-02-22T21:21:55.163Z,2.80
2023-02-22T21:26:55.790Z,2.90
2023-02-22T21:31:54.770Z,2.60
2023-02-22T21:36:54.871Z,2.50
2023-02-22T21:41:55.616Z,2.90
2023-02-22T21:46:54.445Z,2.40
2023-02-22T21:51:54.148Z,2.60
2023-02-22T21:56:56.178Z,2.50
2023-02-22T22:01:57.144Z,2.20
2023-02-22T22:06:58.547Z,2.70
2023-02-22T22:12:01.554Z,2.10
2023-02-22T22:17:05.727Z,2.20
2023-02-22T22:22:05.272Z,1.70
2023-02-22T22:27:06.724Z,2.40
2023-02-22T22:32:06.904Z,2.10
2023-02-22T22:37:07.785Z,1.80
2023-02-22T22:42:09.291Z,1.70
2023-02-22T22:47:12.394Z,2.10
2023-02-22T22:52:14.067Z,1.80
2023-02-22T22:57:13.863Z,2.20
2023-02-22T23:02:12.608Z,1.90
2023-02-22T23:07:13.719Z,2.30
2023-02-22T23:12:17.680Z,1.90
2023-02-22T23:17:31.548Z,2.30
2023-02-22T23:22:31.518Z,1.90
2023-02-22T23:27:30.707Z,2.20
2023-02-22T23:32:30.164Z,1.90
2023-02-22T23:37:35.566Z,2.30
2023-02-22T23:42:36.916Z,2.00
2023-02-22T23:47:37.149Z,2.30
2023-02-22T23:52:37.500Z,2.00
2023-02-22T23:57:37.358Z,2.10
